Time;durP1;ratioP1;P1;durP2;ratioP2;P2;SDS_P1;SDS_P2;PMS_P1;PMS_P2;Temp;Humidity;BMP_temperature;BMP_pressure;BME280_temperature;BME280_humidity;BME280_pressure;Samples;Min_cycle;Max_cycle;Signal;HPM_P1;HPM_P2
2021/11/24 00:02:04;;;;;;;18.42;8.33;;;;;;;4.49;75.88;100096.09;1621162;87;21047;-83
2021/11/24 00:04:30;;;;;;;17.32;8.78;;;;;;;4.47;75.38;100096.06;1673517;85;21013;-82
2021/11/24 00:06:57;;;;;;;19.00;8.30;;;;;;;4.47;75.26;100099.92;1615997;88;21057;-82
2021/11/24 00:09:24;;;;;;;16.87;8.00;;;;;;;4.48;75.73;100090.08;1629453;87;21012;-83
2021/11/24 00:11:51;;;;;;;16.55;8.00;;;;;;;4.46;75.13;100102.07;1638669;86;21063;-83
2021/11/24 00:14:17;;;;;;;22.32;7.40;;;;;;;4.46;75.28;100102.50;1631011;87;21107;-82
2021/11/24 00:16:44;;;;;;;17.52;8.05;;;;;;;4.47;75.49;100103.78;1660273;86;21039;-83
2021/11/24 00:19:10;;;;;;;16.12;7.05;;;;;;;4.49;75.54;100108.97;1655809;86;21095;-82
2021/11/24 00:21:37;;;;;;;17.80;8.18;;;;;;;4.51;75.84;100114.58;1625409;87;21056;-84
2021/11/24 00:24:04;;;;;;;15.65;7.92;;;;;;;4.52;75.82;100115.03;1619579;86;21051;-84
2021/11/24 00:26:30;;;;;;;17.35;7.95;;;;;;;4.55;75.49;100111.20;1648145;87;21079;-84
2021/11/24 00:28:57;;;;;;;15.63;8.20;;;;;;;4.62;75.76;100113.91;1665591;86;20983;-83
2021/11/24 00:31:23;;;;;;;15.78;7.28;;;;;;;4.65;75.32;100112.22;1663667;85;21056;-83
2021/11/24 00:33:50;;;;;;;20.23;8.28;;;;;;;4.67;75.14;100114.39;1640785;86;21015;-81
2021/11/24 00:36:16;;;;;;;21.27;8.95;;;;;;;4.68;74.11;100110.98;1661730;86;21036;-82
2021/11/24 00:38:42;;;;;;;22.30;9.43;;;;;;;4.74;73.51;100117.95;1651387;85;21101;-83
2021/11/24 00:41:09;;;;;;;19.85;9.60;;;;;;;4.76;73.45;100121.41;1676243;85;21107;-82
2021/11/24 00:43:36;;;;;;;21.35;8.95;;;;;;;4.77;73.69;100120.55;1653878;84;21056;-81
2021/11/24 00:46:03;;;;;;;19.02;8.45;;;;;;;4.76;73.06;100113.68;1665883;85;21080;-82
2021/11/24 00:48:29;;;;;;;16.57;7.92;;;;;;;4.75;73.78;100119.66;1644754;85;21005;-83
2021/11/24 00:50:56;;;;;;;17.20;7.97;;;;;;;4.71;72.84;100123.04;1657877;85;21025;-83
2021/11/24 00:53:22;;;;;;;16.85;8.63;;;;;;;4.67;73.93;100119.55;1675541;85;21063;-83
2021/11/24 00:55:49;;;;;;;16.70;7.70;;;;;;;4.61;73.98;100117.30;1683246;85;21529;-83
2021/11/24 00:58:17;;;;;;;16.75;7.80;;;;;;;4.56;73.87;100122.40;1687683;84;21068;-81
2021/11/24 01:00:45;;;;;;;16.37;7.75;;;;;;;4.50;73.55;100111.58;1674769;85;21034;-83
2021/11/24 01:03:13;;;;;;;13.60;7.95;;;;;;;4.48;73.58;100121.41;1666217;85;21055;-83
2021/11/24 01:05:44;;;;;;;16.25;7.80;;;;;;;4.44;73.22;100118.34;1664955;86;21071;-83
2021/11/24 01:08:07;;;;;;;16.77;8.68;;;;;;;4.35;73.12;100116.47;1667131;84;21048;-82
2021/11/24 01:10:34;;;;;;;21.25;9.40;;;;;;;4.29;73.71;100119.80;1671540;84;21053;-84
2021/11/24 01:13:00;;;;;;;23.27;9.78;;;;;;;4.19;73.67;100117.92;1661984;86;21623;-82
2021/11/24 01:15:27;;;;;;;19.35;8.58;;;;;;;4.14;73.76;100126.86;1682503;84;21084;-85
2021/11/24 01:17:53;;;;;;;22.10;9.95;;;;;;;4.13;74.22;100120.39;1666964;85;21046;-83
2021/11/24 01:20:20;;;;;;;19.37;8.85;;;;;;;4.11;74.52;100118.20;1656713;86;21059;-83
2021/11/24 01:22:46;;;;;;;22.50;8.80;;;;;;;4.07;74.29;100121.14;1618362;89;21113;-82
2021/11/24 01:25:13;;;;;;;24.02;9.78;;;;;;;4.07;74.30;100126.29;1652323;86;21152;-83
2021/11/24 01:27:43;;;;;;;22.67;10.82;;;;;;;4.07;74.55;100123.72;1693809;85;21094;-83
2021/11/24 01:30:12;;;;;;;17.80;8.03;;;;;;;4.03;74.42;100124.94;1693472;85;21038;-82
2021/11/24 01:32:39;;;;;;;24.25;9.75;;;;;;;4.06;75.19;100115.96;1681570;85;21163;-83
2021/11/24 01:35:08;;;;;;;18.00;8.85;;;;;;;4.02;74.97;100118.92;1666666;85;20995;-83
2021/11/24 01:37:35;;;;;;;23.27;9.30;;;;;;;4.05;75.08;100122.83;1666739;86;21030;-83
2021/11/24 01:40:05;;;;;;;22.15;8.95;;;;;;;4.10;75.73;100124.18;1663004;86;20990;-83
2021/11/24 01:42:33;;;;;;;22.65;11.10;;;;;;;4.09;76.08;100119.46;1665153;84;21107;-83
2021/11/24 01:45:01;;;;;;;24.27;12.58;;;;;;;4.08;76.60;100119.42;1666696;86;21026;-82
2021/11/24 01:47:27;;;;;;;22.62;10.70;;;;;;;4.02;76.15;100124.08;1664705;86;21057;-82
2021/11/24 01:49:54;;;;;;;21.95;10.93;;;;;;;4.03;76.16;100125.80;1686142;85;21497;-82
2021/11/24 01:52:21;;;;;;;23.07;11.05;;;;;;;3.99;75.90;100125.29;1660978;85;21081;-83
2021/11/24 01:54:47;;;;;;;22.32;10.53;;;;;;;3.95;75.43;100120.93;1652327;86;21035;-82
2021/11/24 01:57:18;;;;;;;23.45;11.18;;;;;;;3.89;75.55;100122.97;1629400;87;21037;-82
2021/11/24 01:59:47;;;;;;;29.02;11.28;;;;;;;3.82;75.34;100122.82;1631793;88;21057;-83
2021/11/24 02:02:18;;;;;;;24.65;11.05;;;;;;;3.74;75.54;100123.56;1631875;87;21119;-83
2021/11/24 02:04:44;;;;;;;25.62;11.08;;;;;;;3.71;75.81;100123.48;1631683;88;21056;-84
2021/11/24 02:07:11;;;;;;;25.82;11.28;;;;;;;3.69;75.57;100124.31;1630279;87;21086;-82
2021/11/24 02:09:37;;;;;;;24.10;11.00;;;;;;;3.62;75.34;100111.77;1631885;87;21073;-83
2021/11/24 02:12:05;;;;;;;23.25;10.58;;;;;;;3.60;75.32;100123.69;1631614;87;21080;-81
2021/11/24 02:14:32;;;;;;;26.23;11.12;;;;;;;3.55;75.10;100128.75;1630611;87;21634;-83
2021/11/24 02:16:58;;;;;;;28.23;10.00;;;;;;;3.54;75.13;100133.86;1631685;87;21040;-81
2021/11/24 02:19:32;;;;;;;21.82;10.08;;;;;;;3.49;75.11;100131.63;1622813;87;21060;-82
2021/11/24 02:22:00;;;;;;;24.52;11.40;;;;;;;3.45;75.14;100119.55;1620620;88;21067;-83
2021/11/24 02:24:31;;;;;;;21.48;10.13;;;;;;;3.41;74.95;100127.61;1668770;85;20991;-82
2021/11/24 02:26:59;;;;;;;22.25;9.55;;;;;;;3.35;75.01;100119.36;1667273;86;21046;-83
2021/11/24 02:29:26;;;;;;;26.42;10.53;;;;;;;3.32;75.38;100122.27;1664960;86;21341;-82
2021/11/24 02:31:57;;;;;;;25.95;9.90;;;;;;;3.32;75.31;100119.31;1663235;85;21185;-83
2021/11/24 02:34:24;;;;;;;29.40;9.80;;;;;;;3.34;75.65;100121.89;1664551;86;21041;-83
2021/11/24 02:36:51;;;;;;;24.45;10.68;;;;;;;3.32;75.99;100124.84;1662814;86;21088;-84
2021/11/24 02:39:18;;;;;;;54.88;20.55;;;;;;;3.34;76.33;100125.74;1665137;86;21030;-83
2021/11/24 02:41:45;;;;;;;36.60;15.23;;;;;;;3.36;76.62;100126.25;1663757;86;20999;-82
2021/11/24 02:44:37;;;;;;;27.52;11.43;;;;;;;3.37;76.50;100125.39;1666290;86;21090;-83
2021/11/24 02:47:15;;;;;;;40.20;14.58;;;;;;;3.41;76.69;100124.19;1660045;86;21007;-83
2021/11/24 02:49:45;;;;;;;32.05;12.63;;;;;;;3.44;76.71;100119.09;1664492;86;21066;-85
2021/11/24 02:52:14;;;;;;;29.45;12.73;;;;;;;3.48;76.76;100131.16;1665285;86;21510;-84
2021/11/24 02:54:42;;;;;;;26.52;11.68;;;;;;;3.50;76.75;100124.35;1666183;86;21344;-84
2021/11/24 02:57:09;;;;;;;26.68;12.07;;;;;;;3.51;76.68;100119.25;1683021;84;21053;-85
2021/11/24 02:59:39;;;;;;;25.80;11.40;;;;;;;3.51;76.68;100124.39;1674032;86;21621;-84
2021/11/24 03:02:06;;;;;;;30.88;14.70;;;;;;;3.52;76.63;100126.14;1685114;85;21193;-82
2021/11/24 03:04:33;;;;;;;23.38;12.50;;;;;;;3.53;76.48;100126.57;1653316;86;21645;-84
2021/11/24 03:07:03;;;;;;;31.07;11.75;;;;;;;3.51;76.75;100123.53;1652035;86;21066;-84
2021/11/24 03:09:30;;;;;;;26.05;11.75;;;;;;;3.52;76.42;100130.39;1631198;88;21053;-83
2021/11/24 03:11:57;;;;;;;29.20;13.22;;;;;;;3.42;76.67;100134.48;1647052;87;21099;-84
2021/11/24 03:14:23;;;;;;;26.17;11.33;;;;;;;3.36;76.90;100131.39;1656114;85;21099;-84
2021/11/24 03:16:50;;;;;;;31.80;13.08;;;;;;;3.30;76.87;100135.13;1646379;87;21108;-84
2021/11/24 03:19:16;;;;;;;33.10;12.68;;;;;;;3.28;77.15;100130.76;1625269;87;21108;-83
2021/11/24 03:21:43;;;;;;;28.23;12.75;;;;;;;3.25;77.42;100128.14;1631700;87;21055;-83
2021/11/24 03:24:09;;;;;;;25.30;11.68;;;;;;;3.24;77.43;100132.39;1623121;87;21063;-84
2021/11/24 03:26:36;;;;;;;27.80;9.80;;;;;;;3.22;77.38;100135.34;1597093;88;21128;-84
2021/11/24 03:29:03;;;;;;;22.15;10.32;;;;;;;3.22;77.25;100125.49;1596629;89;21090;-83
2021/11/24 03:31:29;;;;;;;31.35;10.53;;;;;;;3.22;77.11;100128.06;1635338;87;21043;-85
2021/11/24 03:33:56;;;;;;;24.02;9.98;;;;;;;3.24;77.23;100129.82;1587011;89;21104;-84
2021/11/24 03:36:23;;;;;;;22.15;10.65;;;;;;;3.24;77.26;100136.25;1611000;88;21096;-84
2021/11/24 03:38:49;;;;;;;21.48;9.85;;;;;;;3.27;77.50;100131.19;1674638;86;21098;-84
2021/11/24 03:41:16;;;;;;;24.77;10.68;;;;;;;3.30;77.43;100135.13;1679038;86;21011;-85
2021/11/24 03:43:42;;;;;;;26.40;10.18;;;;;;;3.33;77.45;100140.30;1676703;86;21040;-83
2021/11/24 03:46:09;;;;;;;22.93;10.58;;;;;;;3.34;77.25;100140.77;1676126;86;20964;-85
2021/11/24 03:48:35;;;;;;;24.55;11.68;;;;;;;3.37;77.34;100139.95;1686447;84;21034;-83
2021/11/24 03:51:02;;;;;;;27.73;11.15;;;;;;;3.36;77.02;100140.39;1675634;86;21078;-84
2021/11/24 03:53:28;;;;;;;31.62;10.98;;;;;;;3.39;76.94;100137.86;1658473;86;21051;-84
2021/11/24 03:55:54;;;;;;;25.15;11.48;;;;;;;3.39;76.90;100144.71;1676209;85;20936;-85
2021/11/24 03:58:21;;;;;;;29.45;11.38;;;;;;;3.42;76.97;100149.90;1696756;85;21075;-84
2021/11/24 04:00:47;;;;;;;26.70;11.45;;;;;;;3.37;76.53;100143.39;1699706;84;20996;-82
2021/11/24 04:03:14;;;;;;;26.57;11.63;;;;;;;3.34;76.56;100145.91;1682027;83;21526;-83
2021/11/24 04:05:41;;;;;;;25.72;11.12;;;;;;;3.31;76.51;100142.41;1678265;84;21102;-83
2021/11/24 04:08:07;;;;;;;26.85;11.78;;;;;;;3.30;76.68;100147.97;1675212;85;21027;-83
2021/11/24 04:10:33;;;;;;;23.83;11.50;;;;;;;3.29;77.01;100146.65;1680526;84;21508;-83
2021/11/24 04:13:00;;;;;;;24.82;9.45;;;;;;;3.27;77.11;100156.03;1655386;85;21088;-82
2021/11/24 04:15:26;;;;;;;23.07;10.40;;;;;;;3.25;77.33;100154.70;1659247;86;21028;-82
2021/11/24 04:17:53;;;;;;;24.67;12.15;;;;;;;3.23;77.47;100149.95;1652276;86;21040;-83
2021/11/24 04:20:20;;;;;;;24.32;11.63;;;;;;;3.22;77.54;100153.77;1654752;86;21081;-82
2021/11/24 04:22:48;;;;;;;29.60;12.03;;;;;;;3.20;77.51;100156.29;1624857;87;21032;-82
2021/11/24 04:25:17;;;;;;;23.62;11.10;;;;;;;3.18;77.56;100148.58;1631992;87;21117;-83
2021/11/24 04:27:42;;;;;;;27.90;11.43;;;;;;;3.17;77.54;100144.68;1668891;85;21036;-82
2021/11/24 04:30:10;;;;;;;27.27;11.85;;;;;;;3.15;77.66;100140.78;1664471;85;21016;-83
2021/11/24 04:32:36;;;;;;;27.87;11.53;;;;;;;3.15;77.82;100146.34;1653460;85;21026;-81
2021/11/24 04:35:04;;;;;;;32.70;14.43;;;;;;;3.17;77.83;100144.68;1653405;85;21017;-82
2021/11/24 04:37:30;;;;;;;29.55;12.58;;;;;;;3.17;77.89;100138.25;1659407;85;21024;-81
2021/11/24 04:39:57;;;;;;;27.15;12.88;;;;;;;3.18;77.92;100137.41;1680635;84;21044;-83
2021/11/24 04:42:23;;;;;;;30.48;11.38;;;;;;;3.21;78.10;100132.77;1673026;84;21005;-82
2021/11/24 04:44:50;;;;;;;27.37;13.13;;;;;;;3.19;78.16;100138.73;1683769;85;21047;-83
2021/11/24 04:47:16;;;;;;;30.82;11.95;;;;;;;3.18;78.56;100129.70;1678414;84;21071;-83
2021/11/24 04:49:43;;;;;;;34.48;13.98;;;;;;;3.16;78.66;100139.97;1668241;85;21039;-83
2021/11/24 04:52:10;;;;;;;26.60;13.65;;;;;;;3.12;78.82;100137.27;1659576;85;21004;-83
2021/11/24 04:54:36;;;;;;;31.35;13.98;;;;;;;3.08;78.92;100138.05;1686449;84;21084;-82
2021/11/24 04:57:04;;;;;;;70.62;28.60;;;;;;;3.04;79.11;100137.53;1678635;85;21005;-83
2021/11/24 04:59:30;;;;;;;49.77;19.55;;;;;;;2.97;79.50;100139.96;1652037;82;21056;-83
2021/11/24 05:02:08;;;;;;;49.95;22.20;;;;;;;2.91;79.79;100138.97;1688455;83;21035;-83
2021/11/24 05:04:35;;;;;;;40.58;18.65;;;;;;;2.85;80.01;100139.69;1705409;82;20994;-84
2021/11/24 05:07:01;;;;;;;30.05;13.53;;;;;;;2.79;80.22;100138.27;1689334;85;21055;-83
2021/11/24 05:09:28;;;;;;;26.80;12.68;;;;;;;2.72;80.28;100135.95;1673994;85;21020;-84
2021/11/24 05:11:54;;;;;;;25.97;10.90;;;;;;;2.67;80.43;100136.71;1662183;85;21029;-82
2021/11/24 05:14:28;;;;;;;28.38;10.72;;;;;;;2.59;80.41;100133.95;1641178;85;21111;-83
2021/11/24 05:16:50;;;;;;;51.65;17.27;;;;;;;2.53;80.37;100137.66;1668026;84;21016;-83
2021/11/24 05:19:23;;;;;;;131.95;40.52;;;;;;;2.46;80.36;100139.62;1675533;84;21035;-83
2021/11/24 05:21:55;;;;;;;105.92;32.15;;;;;;;2.38;80.54;100141.56;1661716;85;21109;-84
2021/11/24 05:24:19;;;;;;;53.48;21.87;;;;;;;2.32;80.65;100143.13;1646836;85;21939;-87
2021/11/24 05:26:47;;;;;;;49.42;17.85;;;;;;;2.25;80.51;100162.64;1658629;86;21072;-83
2021/11/24 05:29:13;;;;;;;40.15;15.88;;;;;;;2.21;80.68;100149.67;1670526;86;20984;-84
2021/11/24 05:31:40;;;;;;;40.80;15.98;;;;;;;2.15;80.95;100153.84;1682463;85;21050;-85
2021/11/24 05:34:07;;;;;;;27.98;12.90;;;;;;;2.12;80.95;100152.46;1670279;83;21089;-84
2021/11/24 05:36:35;;;;;;;29.95;14.43;;;;;;;2.08;80.88;100152.35;1657714;85;21031;-84
2021/11/24 05:39:06;;;;;;;31.42;14.50;;;;;;;2.02;81.03;100158.19;1657931;86;21024;-84
2021/11/24 05:41:32;;;;;;;27.37;12.82;;;;;;;1.95;81.33;100157.55;1650728;86;21093;-84
2021/11/24 05:44:15;;;;;;;57.38;25.05;;;;;;;1.81;81.16;100143.11;1657406;86;21046;-85
2021/11/24 05:46:43;;;;;;;35.20;14.25;;;;;;;1.86;81.75;100160.75;1660091;86;21141;-85
2021/11/24 05:49:09;;;;;;;36.05;14.78;;;;;;;1.81;80.88;100166.19;1653373;86;21205;-85
2021/11/24 05:51:37;;;;;;;42.95;16.85;;;;;;;1.71;81.44;100156.09;1647978;86;21024;-85
2021/11/24 05:54:05;;;;;;;35.08;13.15;;;;;;;1.64;81.29;100160.58;1637921;86;20995;-84
2021/11/24 05:56:34;;;;;;;34.92;14.55;;;;;;;1.59;81.03;100165.97;1622794;83;21017;-82
2021/11/24 05:59:00;;;;;;;32.03;12.88;;;;;;;1.55;81.58;100171.84;1687237;84;21061;-83
2021/11/24 06:01:27;;;;;;;43.28;15.23;;;;;;;1.53;81.86;100172.21;1636428;86;21033;-83
2021/11/24 06:03:53;;;;;;;34.00;14.98;;;;;;;1.54;82.32;100178.67;1620980;88;21057;-85
2021/11/24 06:06:20;;;;;;;39.95;16.62;;;;;;;1.52;81.86;100178.18;1639009;86;21055;-83
2021/11/24 06:08:46;;;;;;;60.67;17.95;;;;;;;1.50;82.35;100184.53;1593377;89;21050;-83
2021/11/24 06:11:12;;;;;;;42.40;17.32;;;;;;;1.48;82.88;100184.91;1632836;86;20984;-84
2021/11/24 06:13:39;;;;;;;43.92;17.87;;;;;;;1.48;82.38;100185.33;1652121;86;21084;-84
2021/11/24 06:16:05;;;;;;;51.48;20.23;;;;;;;1.50;82.35;100183.67;1666862;85;20988;-84
2021/11/24 06:18:32;;;;;;;51.42;18.92;;;;;;;1.49;82.78;100187.94;1665163;86;21051;-84
2021/11/24 06:20:58;;;;;;;43.63;17.35;;;;;;;1.49;82.50;100182.81;1628961;86;21079;-84
2021/11/24 06:23:25;;;;;;;41.88;19.00;;;;;;;1.50;82.13;100192.22;1635936;87;21047;-84
2021/11/24 06:25:51;;;;;;;44.77;18.05;;;;;;;1.51;82.12;100190.14;1600783;89;21121;-85
2021/11/24 06:28:17;;;;;;;38.78;17.62;;;;;;;1.47;82.35;100192.55;1629721;87;21037;-84
2021/11/24 06:30:44;;;;;;;55.73;19.77;;;;;;;1.46;82.12;100198.09;1635979;86;21060;-85
2021/11/24 06:33:10;;;;;;;43.42;18.73;;;;;;;1.45;81.98;100200.59;1655449;85;21100;-85
2021/11/24 06:35:37;;;;;;;42.08;17.87;;;;;;;1.39;82.88;100190.64;1614907;87;21079;-82
2021/11/24 06:38:06;;;;;;;40.70;17.67;;;;;;;1.38;81.74;100196.58;1616245;86;21084;-81
2021/11/24 06:40:33;;;;;;;49.67;18.02;;;;;;;1.37;82.74;100201.65;1655873;85;21064;-81
2021/11/24 06:42:59;;;;;;;41.33;16.48;;;;;;;1.39;82.77;100194.88;1670105;84;21048;-83
2021/11/24 06:45:26;;;;;;;36.10;15.98;;;;;;;1.39;82.87;100200.89;1686040;85;21051;-81
2021/11/24 06:47:52;;;;;;;45.48;15.98;;;;;;;1.37;82.79;100198.70;1661675;85;21045;-80
2021/11/24 06:50:19;;;;;;;38.55;15.83;;;;;;;1.39;82.77;100202.17;1674584;84;21083;-80
2021/11/24 06:52:46;;;;;;;32.33;14.18;;;;;;;1.43;82.90;100197.13;1647048;85;21069;-80
2021/11/24 06:55:12;;;;;;;30.82;13.72;;;;;;;1.45;83.34;100204.02;1662276;85;21001;-81
2021/11/24 06:57:41;;;;;;;40.83;13.98;;;;;;;1.47;82.97;100201.51;1668860;84;21117;-80
2021/11/24 07:00:10;;;;;;;30.02;13.70;;;;;;;1.49;83.02;100205.88;1673677;84;21044;-81
2021/11/24 07:02:36;;;;;;;33.63;13.38;;;;;;;1.53;83.01;100208.09;1633697;87;21080;-80
2021/11/24 07:05:04;;;;;;;27.90;12.50;;;;;;;1.55;82.95;100212.84;1644935;85;21104;-80
2021/11/24 07:07:31;;;;;;;33.20;13.25;;;;;;;1.60;82.49;100210.02;1621504;86;21197;-81
2021/11/24 07:09:58;;;;;;;28.62;14.33;;;;;;;1.61;82.45;100210.46;1622496;86;21060;-81
2021/11/24 07:12:25;;;;;;;31.35;13.95;;;;;;;1.64;82.16;100205.86;1627926;87;21464;-82
2021/11/24 07:14:54;;;;;;;29.25;11.57;;;;;;;1.66;82.29;100211.90;1651748;86;21022;-80
2021/11/24 07:17:20;;;;;;;30.85;12.85;;;;;;;1.69;81.92;100211.58;1654850;85;21024;-84
2021/11/24 07:19:46;;;;;;;28.25;13.10;;;;;;;1.71;81.91;100207.37;1673589;84;21010;-80
2021/11/24 07:22:13;;;;;;;22.93;11.15;;;;;;;1.75;82.05;100210.47;1626879;86;21023;-79
2021/11/24 07:24:40;;;;;;;28.95;10.65;;;;;;;1.81;81.96;100210.17;1675658;81;21467;-84
2021/11/24 07:27:07;;;;;;;29.20;10.50;;;;;;;1.86;81.60;100212.04;1653311;82;21074;-82
2021/11/24 07:29:33;;;;;;;27.45;10.48;;;;;;;1.92;81.62;100209.64;1645965;85;21108;-81
2021/11/24 07:32:00;;;;;;;23.98;11.20;;;;;;;1.98;81.47;100212.80;1648003;85;21115;-84
2021/11/24 07:34:27;;;;;;;25.25;10.43;;;;;;;2.04;81.51;100206.55;1633800;85;21024;-81
2021/11/24 07:36:54;;;;;;;21.97;10.63;;;;;;;2.13;81.49;100211.94;1659026;85;21092;-81
2021/11/24 07:39:20;;;;;;;30.37;11.25;;;;;;;2.21;81.61;100211.25;1637262;85;21091;-80
2021/11/24 07:41:47;;;;;;;24.05;10.90;;;;;;;2.25;81.38;100214.35;1657435;85;21017;-81
2021/11/24 07:44:15;;;;;;;27.98;11.88;;;;;;;2.33;81.58;100216.73;1659054;84;21031;-80
2021/11/24 07:46:41;;;;;;;24.75;11.97;;;;;;;2.36;80.77;100216.80;1660527;84;21004;-81
2021/11/24 07:49:08;;;;;;;30.60;12.10;;;;;;;2.43;80.99;100214.85;1658913;85;21072;-82
2021/11/24 07:51:35;;;;;;;27.07;11.35;;;;;;;2.45;80.49;100217.05;1612711;87;21081;-86
2021/11/24 07:54:01;;;;;;;24.23;10.78;;;;;;;2.53;80.78;100221.09;1614967;87;21079;-80
2021/11/24 07:56:28;;;;;;;34.15;13.98;;;;;;;2.59;80.59;100217.39;1661433;85;21063;-89
2021/11/24 07:58:54;;;;;;;30.17;12.37;;;;;;;2.64;80.68;100213.22;1667423;85;20984;-85
2021/11/24 08:01:21;;;;;;;32.30;13.22;;;;;;;2.68;80.36;100215.03;1667644;84;21185;-87
2021/11/24 08:03:47;;;;;;;27.05;11.83;;;;;;;2.73;80.38;100210.89;1632233;85;21059;-87
2021/11/24 08:06:14;;;;;;;26.42;11.35;;;;;;;2.79;80.08;100214.03;1634848;87;20973;-88
2021/11/24 08:08:40;;;;;;;29.10;12.40;;;;;;;2.81;79.74;100212.37;1646295;85;21064;-86
2021/11/24 08:11:07;;;;;;;34.05;11.65;;;;;;;2.86;79.76;100215.90;1662977;85;21023;-86
2021/11/24 08:13:33;;;;;;;31.68;11.53;;;;;;;2.88;79.19;100211.66;1658396;85;21244;-88
2021/11/24 08:16:00;;;;;;;27.98;12.05;;;;;;;2.91;78.76;100217.31;1625838;86;21057;-87
2021/11/24 08:18:26;;;;;;;25.35;11.45;;;;;;;2.94;78.58;100210.52;1616672;86;21029;-84
2021/11/24 08:20:53;;;;;;;30.25;11.93;;;;;;;3.00;79.19;100207.23;1615622;88;21019;-82
2021/11/24 08:23:19;;;;;;;37.90;14.85;;;;;;;3.07;78.89;100209.55;1626642;86;21032;-82
2021/11/24 08:25:46;;;;;;;35.48;13.28;;;;;;;3.10;79.77;100213.45;1668758;83;21035;-85
2021/11/24 08:28:13;;;;;;;32.63;14.40;;;;;;;3.10;79.91;100209.60;1675794;84;21075;-84
2021/11/24 08:30:39;;;;;;;32.80;13.95;;;;;;;3.10;79.85;100209.17;1679815;83;21047;-83
2021/11/24 08:33:06;;;;;;;32.25;13.78;;;;;;;3.12;80.56;100206.26;1675601;85;21115;-82
2021/11/24 08:35:34;;;;;;;33.15;13.13;;;;;;;3.19;80.36;100213.25;1642555;85;21142;-81
2021/11/24 08:38:00;;;;;;;36.73;13.55;;;;;;;3.22;80.67;100214.16;1664390;84;21539;-89
2021/11/24 08:40:27;;;;;;;35.68;14.03;;;;;;;3.26;80.73;100210.39;1664084;84;21558;-83
2021/11/24 08:42:53;;;;;;;36.03;13.50;;;;;;;3.30;80.79;100212.62;1667138;85;21092;-90
2021/11/24 08:45:20;;;;;;;29.12;13.48;;;;;;;3.37;81.01;100204.22;1655664;85;21059;-84
2021/11/24 08:47:49;;;;;;;32.95;13.03;;;;;;;3.46;80.97;100208.68;1666831;84;21095;-83
2021/11/24 08:50:17;;;;;;;38.80;18.70;;;;;;;3.51;80.99;100200.23;1673170;84;21027;-81
2021/11/24 08:52:48;;;;;;;44.80;20.25;;;;;;;3.56;80.66;100210.22;1662152;86;21514;-80
2021/11/24 08:55:14;;;;;;;42.93;17.32;;;;;;;3.61;80.62;100203.02;1660215;85;20961;-82
2021/11/24 08:57:42;;;;;;;42.53;17.07;;;;;;;3.66;80.37;100205.24;1637478;86;21071;-80
2021/11/24 09:00:13;;;;;;;35.00;15.32;;;;;;;3.68;80.30;100196.75;1638052;87;21096;-81
2021/11/24 09:02:41;;;;;;;38.42;15.38;;;;;;;3.71;80.15;100195.94;1646183;86;21070;-80
2021/11/24 09:05:13;;;;;;;37.93;15.88;;;;;;;3.69;80.24;100184.75;1647332;86;21084;-81
2021/11/24 09:07:40;;;;;;;33.23;15.28;;;;;;;3.69;80.01;100186.89;1663571;85;21076;-82
2021/11/24 09:10:07;;;;;;;37.50;15.83;;;;;;;3.75;79.61;100188.30;1656356;84;21496;-79
2021/11/24 09:12:34;;;;;;;37.10;14.60;;;;;;;3.75;79.74;100183.16;1662057;85;21086;-82
2021/11/24 09:15:01;;;;;;;34.80;15.83;;;;;;;3.79;79.87;100187.52;1652691;86;21055;-82
2021/11/24 09:17:27;;;;;;;30.02;14.75;;;;;;;3.85;79.91;100188.48;1651310;86;21081;-81
2021/11/24 09:19:54;;;;;;;35.15;13.53;;;;;;;3.87;79.49;100186.81;1669609;85;21028;-81
2021/11/24 09:22:20;;;;;;;34.00;13.15;;;;;;;3.79;79.48;100178.52;1686179;84;21064;-80
2021/11/24 09:24:53;;;;;;;29.82;13.13;;;;;;;3.78;79.53;100179.80;1673427;83;21333;-81
2021/11/24 09:27:18;;;;;;;31.35;12.40;;;;;;;3.81;79.90;100178.55;1663435;84;21039;-81
2021/11/24 09:29:50;;;;;;;33.02;12.73;;;;;;;3.83;79.90;100178.59;1642105;85;21512;-82
2021/11/24 09:32:16;;;;;;;34.18;11.85;;;;;;;3.85;79.95;100176.91;1677730;84;21064;-82
2021/11/24 09:34:43;;;;;;;28.70;11.97;;;;;;;3.90;80.26;100173.99;1693551;84;21583;-84
2021/11/24 09:37:10;;;;;;;26.73;11.63;;;;;;;3.96;80.34;100171.56;1668710;84;21037;-82
2021/11/24 09:39:36;;;;;;;33.50;12.07;;;;;;;4.04;80.30;100159.70;1646585;85;21167;-84
2021/11/24 09:42:04;;;;;;;34.40;13.43;;;;;;;4.09;80.21;100150.77;1624990;88;21100;-82
2021/11/24 09:44:32;;;;;;;29.02;12.00;;;;;;;4.17;80.25;100159.06;1624697;87;21064;-83
2021/11/24 09:47:01;;;;;;;33.10;13.45;;;;;;;4.20;79.32;100156.98;1626034;87;21068;-82
2021/11/24 09:49:29;;;;;;;27.37;12.07;;;;;;;4.26;79.74;100155.80;1659286;85;21040;-81
2021/11/24 09:51:57;;;;;;;26.15;12.10;;;;;;;4.24;79.14;100145.91;1680934;84;21056;-82
2021/11/24 09:54:24;;;;;;;32.85;14.28;;;;;;;4.26;79.02;100148.08;1681442;83;21082;-82
2021/11/24 09:56:50;;;;;;;27.77;12.25;;;;;;;4.24;78.00;100143.73;1667807;84;21082;-81
2021/11/24 09:59:17;;;;;;;27.70;12.37;;;;;;;4.21;78.02;100139.41;1669321;83;21058;-78
2021/11/24 10:01:44;;;;;;;30.27;13.32;;;;;;;4.23;77.98;100142.87;1676601;83;21024;-87
2021/11/24 10:04:11;;;;;;;24.15;11.70;;;;;;;4.19;77.88;100136.80;1664445;85;21038;-82
2021/11/24 10:06:39;;;;;;;25.97;12.28;;;;;;;4.25;78.29;100143.77;1684557;83;21083;-79
2021/11/24 10:09:09;;;;;;;26.23;11.25;;;;;;;4.29;77.83;100139.11;1661678;85;21051;-80
2021/11/24 10:11:37;;;;;;;21.75;10.10;;;;;;;4.31;77.26;100136.56;1661356;85;21569;-81
2021/11/24 10:14:04;;;;;;;27.35;10.30;;;;;;;4.38;77.71;100138.42;1649596;85;21067;-83
2021/11/24 10:16:33;;;;;;;34.25;10.78;;;;;;;4.46;77.78;100134.26;1692892;83;21023;-80
2021/11/24 10:19:13;;;;;;;32.75;12.33;;;;;;;4.53;77.89;100139.07;1646190;85;21077;-81
2021/11/24 10:22:02;;;;;;;24.95;10.00;;;;;;;4.57;76.18;100123.69;1673345;84;22249;-79
2021/11/24 10:24:33;;;;;;;24.90;11.50;;;;;;;4.67;77.26;100131.56;1681373;84;21048;-82
2021/11/24 10:27:07;;;;;;;23.57;11.45;;;;;;;4.76;76.76;100130.43;1690066;83;21049;-83
2021/11/24 10:29:35;;;;;;;21.70;10.93;;;;;;;4.81;75.26;100130.06;1671552;84;21010;-83
2021/11/24 10:32:09;;;;;;;25.65;11.75;;;;;;;4.89;75.87;100120.72;1699307;83;21041;-80
2021/11/24 10:34:38;;;;;;;;;;;;;;;5.02;76.80;100114.05;1648932;85;21609;-79
2021/11/24 10:37:13;;;;;;;29.37;12.33;;;;;;;5.14;76.48;100108.20;1634271;86;20120;-79
2021/11/24 10:39:51;;;;;;;26.93;11.88;;;;;;;5.20;75.76;100108.70;1634227;86;21044;-82
2021/11/24 10:42:23;;;;;;;27.85;11.85;;;;;;;5.30;75.32;100102.38;1686581;84;21058;-81
2021/11/24 10:45:08;;;;;;;23.70;12.50;;;;;;;5.40;73.16;100107.66;1678474;84;21629;-82
2021/11/24 10:47:53;;;;;;;27.73;12.93;;;;;;;5.51;74.51;100099.60;1676138;83;21031;-80
2021/11/24 10:50:23;;;;;;;31.50;12.88;;;;;;;5.62;72.96;100082.55;1671476;84;21043;-80
2021/11/24 10:52:50;;;;;;;29.85;11.60;;;;;;;5.76;73.13;100090.00;1682734;84;21059;-79
2021/11/24 10:55:26;;;;;;;28.50;12.30;;;;;;;5.86;74.05;100083.22;1680657;84;21515;-81
2021/11/24 10:58:16;;;;;;;25.97;12.03;;;;;;;5.93;74.39;100081.14;1683880;84;21035;-82
2021/11/24 11:00:50;;;;;;;24.27;11.10;;;;;;;6.03;72.27;100072.20;1685737;84;21043;-83
2021/11/24 11:03:21;;;;;;;25.80;10.78;;;;;;;6.06;71.00;100074.40;1693494;84;21531;-81
2021/11/24 11:05:52;;;;;;;25.57;11.08;;;;;;;6.16;70.76;100066.31;1669460;84;21078;-82
2021/11/24 11:08:18;;;;;;;26.97;11.40;;;;;;;6.23;70.66;100068.11;1686676;84;21048;-82
2021/11/24 11:10:54;;;;;;;28.85;13.00;;;;;;;6.32;72.25;100064.28;1692029;83;21075;-82
2021/11/24 11:13:20;;;;;;;27.07;12.25;;;;;;;6.41;71.33;100060.92;1675819;84;21368;-80
2021/11/24 11:15:55;;;;;;;23.92;11.97;;;;;;;6.50;70.32;100062.26;1687410;84;21031;-82
2021/11/24 11:18:26;;;;;;;26.12;12.03;;;;;;;6.64;70.86;100056.33;1687000;83;21098;-82
2021/11/24 11:20:58;;;;;;;27.05;12.33;;;;;;;6.77;71.19;100055.55;1684439;83;21119;-81
2021/11/24 11:23:35;;;;;;;23.98;11.83;;;;;;;6.83;69.86;100047.83;1670750;84;21095;-80